Weather at Kjeller Airport

Public forecast

Using degrees Celsius for public forecast. Weather courtesy of forecast.io.

Closest aviation weather report (METAR) to Kjeller Airport

Closest report is Oslo, Fornebu Airport, 13.4 nm (24.7 km) WSW. Retrieved 2020/11/25 19:20 UTC (10 minutes ago):

ENFB 251920Z AUTO 32019KT 9999NDV BKN023/// 07/03 Q1010 W///S5

Closest aviation forecast (TAF) to Kjeller Airport

Closest forecast is Oslo Gardermoen Airport, 13.6 nm (25.2 km) N. Retrieved 2020/11/25 18:57 UTC (33 minutes ago):

TAF ENGM 251700Z 2518/2618 18010KT CAVOK BECMG 2518/2520 32005KT